Purlear, NC (28665)

10:18 PM EST on February 10, 2016 (GMT -0500)
Job's Cabin Township | | Change Station
CLOSE
Current Station
Personal Weather Station
Location: Purlear, NC
Elevation: 3353 ft
Nearby Weather Stations

Elev 3353 ft 36.28 °N, 81.39 °W | Updated 3 minutes ago

Clear
Clear
15.0 °F
Feels Like 15 °F
N
3.0
Wind Variable Wind from NW
Gusts 9.0 mph

Today
High -- | Low -- °F
--% Chance of Precip.
Yesterday
High -- | Low -- °F
Precip. -- in
Pressure 29.79 in
Visibility 10.0 miles
Clouds Clear
Windchill 15 °F
Dew Point 0 °F
Humidity 52%
Rainfall 0.00 in
Snow Depth Not available.
7:18 AM 6:01 PM
Waxing Crescent, 9% visible
METAR KGEV 110255Z AUTO 29034G49KT 270V330 10SM CLR M10/M21 A2979 RMK AO2 T11011207
Pressure 29.79 in
Visibility 10.0 miles
Clouds Clear
Windchill 15 °F
Dew Point 0 °F
Humidity 52%
Rainfall 0.00 in
Snow Depth Not available.
7:18 AM 6:01 PM
Waxing Crescent, 9% visible
METAR KGEV 110255Z AUTO 29034G49KT 270V330 10SM CLR M10/M21 A2979 RMK AO2 T11011207

10-Day Weather Forecast

Almanac

Astronomy

Feb. 10, 2016 Rise Set
Actual Time
Civil Twilight
Nautical Twilight
Astronomical Twilight
Moon
Length of Visible Light
Length of Day
Tomorrow will be .
, % of the Moon is Illuminated

Today's Extremes

State Highs State Lows

Community

WunderPhotos

Upload Photos

1,891,993 photos uploaded!

WunderBlog® & News

Nearby

Air Quality

  Air Quality AQ Index Pollutant
Not available.

Snow Depth

Station Depth Elevation

Earthquake Activity

City Distance Mag. Time & Date
Minimum magnitude displayed is 2.5.

Coastal Water Temperatures

Place Temperature

Stations

Nearby Weather Stations

Station Location Temp. Windchill Dew Point Humidity Wind Precip. Elev Updated Type
                   

Watches & Warnings

There are currently no watches in effect.